sensor_id;sensor_type;location;lat;lon;timestamp;temperature;humidity
12708;DHT22;6418;50.824;4.718;2023-10-31T00:01:35;10.20;99.90
12708;DHT22;6418;50.824;4.718;2023-10-31T00:04:02;10.30;99.90
12708;DHT22;6418;50.824;4.718;2023-10-31T00:06:29;10.30;99.90
12708;DHT22;6418;50.824;4.718;2023-10-31T00:08:56;10.30;99.90
12708;DHT22;6418;50.824;4.718;2023-10-31T00:11:23;10.30;99.90
12708;DHT22;6418;50.824;4.718;2023-10-31T00:13:50;10.30;99.90
12708;DHT22;6418;50.824;4.718;2023-10-31T00:16:17;10.30;99.90
12708;DHT22;6418;50.824;4.718;2023-10-31T00:18:45;10.30;99.90
12708;DHT22;6418;50.824;4.718;2023-10-31T00:21:12;10.30;99.90
12708;DHT22;6418;50.824;4.718;2023-10-31T00:23:43;10.30;99.90
12708;DHT22;6418;50.824;4.718;2023-10-31T00:26:10;10.30;99.90
12708;DHT22;6418;50.824;4.718;2023-10-31T00:28:37;10.40;99.90
12708;DHT22;6418;50.824;4.718;2023-10-31T00:31:04;10.40;99.90
12708;DHT22;6418;50.824;4.718;2023-10-31T00:33:32;10.40;99.90
12708;DHT22;6418;50.824;4.718;2023-10-31T00:36:01;10.40;99.90
12708;DHT22;6418;50.824;4.718;2023-10-31T00:38:28;10.40;99.90
12708;DHT22;6418;50.824;4.718;2023-10-31T00:40:55;10.40;99.90
12708;DHT22;6418;50.824;4.718;2023-10-31T00:43:21;10.40;99.90
12708;DHT22;6418;50.824;4.718;2023-10-31T00:45:48;10.40;99.90
12708;DHT22;6418;50.824;4.718;2023-10-31T00:48:15;10.40;99.90
12708;DHT22;6418;50.824;4.718;2023-10-31T00:50:43;10.40;99.90
12708;DHT22;6418;50.824;4.718;2023-10-31T00:53:12;10.30;99.90
12708;DHT22;6418;50.824;4.718;2023-10-31T00:55:40;10.40;99.90
12708;DHT22;6418;50.824;4.718;2023-10-31T00:58:07;10.30;99.90
12708;DHT22;6418;50.824;4.718;2023-10-31T01:00:33;10.30;99.90
12708;DHT22;6418;50.824;4.718;2023-10-31T01:03:02;10.30;99.90
12708;DHT22;6418;50.824;4.718;2023-10-31T01:05:29;10.30;99.90
12708;DHT22;6418;50.824;4.718;2023-10-31T01:07:56;10.30;99.90
12708;DHT22;6418;50.824;4.718;2023-10-31T01:10:24;10.30;99.90
12708;DHT22;6418;50.824;4.718;2023-10-31T01:12:51;10.30;99.90
12708;DHT22;6418;50.824;4.718;2023-10-31T01:15:18;10.30;99.90
12708;DHT22;6418;50.824;4.718;2023-10-31T01:17:45;10.30;99.90
12708;DHT22;6418;50.824;4.718;2023-10-31T01:20:12;10.30;99.90
12708;DHT22;6418;50.824;4.718;2023-10-31T01:22:39;10.30;99.90
12708;DHT22;6418;50.824;4.718;2023-10-31T01:25:06;10.30;99.90
12708;DHT22;6418;50.824;4.718;2023-10-31T01:27:34;10.40;99.90
12708;DHT22;6418;50.824;4.718;2023-10-31T01:30:01;10.40;99.90
12708;DHT22;6418;50.824;4.718;2023-10-31T01:32:29;10.40;99.90
12708;DHT22;6418;50.824;4.718;2023-10-31T01:34:55;10.30;99.90
12708;DHT22;6418;50.824;4.718;2023-10-31T01:37:22;10.40;99.90
12708;DHT22;6418;50.824;4.718;2023-10-31T01:39:49;10.40;99.90
12708;DHT22;6418;50.824;4.718;2023-10-31T01:42:17;10.40;99.90
12708;DHT22;6418;50.824;4.718;2023-10-31T01:44:45;10.40;99.90
12708;DHT22;6418;50.824;4.718;2023-10-31T01:47:12;10.30;99.90
12708;DHT22;6418;50.824;4.718;2023-10-31T01:49:40;10.40;99.90
12708;DHT22;6418;50.824;4.718;2023-10-31T01:52:07;10.40;99.90
12708;DHT22;6418;50.824;4.718;2023-10-31T01:54:34;10.50;99.90
12708;DHT22;6418;50.824;4.718;2023-10-31T01:57:02;10.40;99.90
12708;DHT22;6418;50.824;4.718;2023-10-31T01:59:31;10.50;99.90
12708;DHT22;6418;50.824;4.718;2023-10-31T02:02:01;10.50;99.90
12708;DHT22;6418;50.824;4.718;2023-10-31T02:04:28;10.50;99.90
12708;DHT22;6418;50.824;4.718;2023-10-31T02:06:55;10.50;99.90
12708;DHT22;6418;50.824;4.718;2023-10-31T02:09:22;10.50;99.90
12708;DHT22;6418;50.824;4.718;2023-10-31T02:11:52;10.50;99.90
12708;DHT22;6418;50.824;4.718;2023-10-31T02:14:19;10.40;99.90
12708;DHT22;6418;50.824;4.718;2023-10-31T02:16:45;10.40;99.90
12708;DHT22;6418;50.824;4.718;2023-10-31T02:19:18;10.40;99.90
12708;DHT22;6418;50.824;4.718;2023-10-31T02:21:47;10.40;99.90
12708;DHT22;6418;50.824;4.718;2023-10-31T02:24:14;10.30;99.90
12708;DHT22;6418;50.824;4.718;2023-10-31T02:26:41;10.20;99.90
12708;DHT22;6418;50.824;4.718;2023-10-31T02:29:07;10.20;99.90
12708;DHT22;6418;50.824;4.718;2023-10-31T02:31:34;10.20;99.90
12708;DHT22;6418;50.824;4.718;2023-10-31T02:34:01;10.20;99.90
12708;DHT22;6418;50.824;4.718;2023-10-31T02:36:28;10.10;99.90
12708;DHT22;6418;50.824;4.718;2023-10-31T02:38:56;10.10;99.90
12708;DHT22;6418;50.824;4.718;2023-10-31T02:41:23;10.10;99.90
12708;DHT22;6418;50.824;4.718;2023-10-31T02:43:50;10.00;99.90
12708;DHT22;6418;50.824;4.718;2023-10-31T02:46:20;10.00;99.90
12708;DHT22;6418;50.824;4.718;2023-10-31T02:48:47;10.00;99.90
12708;DHT22;6418;50.824;4.718;2023-10-31T02:51:14;10.00;99.90
12708;DHT22;6418;50.824;4.718;2023-10-31T02:53:41;9.90;99.90
12708;DHT22;6418;50.824;4.718;2023-10-31T02:56:09;10.00;99.90
12708;DHT22;6418;50.824;4.718;2023-10-31T02:58:36;9.90;99.90
12708;DHT22;6418;50.824;4.718;2023-10-31T03:01:03;9.90;99.90
12708;DHT22;6418;50.824;4.718;2023-10-31T03:03:30;9.90;99.90
12708;DHT22;6418;50.824;4.718;2023-10-31T03:05:57;9.90;99.90
12708;DHT22;6418;50.824;4.718;2023-10-31T03:08:23;9.90;99.90
12708;DHT22;6418;50.824;4.718;2023-10-31T03:10:50;9.80;99.90
12708;DHT22;6418;50.824;4.718;2023-10-31T03:13:19;9.90;99.90
12708;DHT22;6418;50.824;4.718;2023-10-31T03:15:46;9.80;99.90
12708;DHT22;6418;50.824;4.718;2023-10-31T03:18:13;9.80;99.90
12708;DHT22;6418;50.824;4.718;2023-10-31T03:20:43;9.80;99.90
12708;DHT22;6418;50.824;4.718;2023-10-31T03:23:10;9.80;99.90
12708;DHT22;6418;50.824;4.718;2023-10-31T03:25:37;9.70;99.90
12708;DHT22;6418;50.824;4.718;2023-10-31T03:28:07;9.80;99.90
12708;DHT22;6418;50.824;4.718;2023-10-31T03:30:35;9.80;99.90
12708;DHT22;6418;50.824;4.718;2023-10-31T03:33:02;9.70;99.90
12708;DHT22;6418;50.824;4.718;2023-10-31T03:35:29;9.80;99.90
12708;DHT22;6418;50.824;4.718;2023-10-31T03:37:56;9.80;99.90
12708;DHT22;6418;50.824;4.718;2023-10-31T03:40:23;9.80;99.90
12708;DHT22;6418;50.824;4.718;2023-10-31T03:42:50;9.80;99.90
12708;DHT22;6418;50.824;4.718;2023-10-31T03:45:17;9.80;99.90
12708;DHT22;6418;50.824;4.718;2023-10-31T03:47:45;9.80;99.90
12708;DHT22;6418;50.824;4.718;2023-10-31T03:50:12;9.90;99.90
12708;DHT22;6418;50.824;4.718;2023-10-31T03:52:39;9.90;99.90
12708;DHT22;6418;50.824;4.718;2023-10-31T03:55:07;9.90;99.90
12708;DHT22;6418;50.824;4.718;2023-10-31T03:57:34;9.90;99.90
12708;DHT22;6418;50.824;4.718;2023-10-31T04:00:01;9.90;99.90
12708;DHT22;6418;50.824;4.718;2023-10-31T04:02:30;9.90;99.90
12708;DHT22;6418;50.824;4.718;2023-10-31T04:04:58;9.80;99.90
12708;DHT22;6418;50.824;4.718;2023-10-31T04:07:25;9.80;99.90
12708;DHT22;6418;50.824;4.718;2023-10-31T04:09:52;9.80;99.90
12708;DHT22;6418;50.824;4.718;2023-10-31T04:12:19;9.80;99.90
12708;DHT22;6418;50.824;4.718;2023-10-31T04:14:46;9.70;99.90
12708;DHT22;6418;50.824;4.718;2023-10-31T04:17:13;9.70;99.90
12708;DHT22;6418;50.824;4.718;2023-10-31T04:19:40;9.70;99.90
12708;DHT22;6418;50.824;4.718;2023-10-31T04:22:08;9.70;99.90
12708;DHT22;6418;50.824;4.718;2023-10-31T04:24:35;9.60;99.90
12708;DHT22;6418;50.824;4.718;2023-10-31T04:27:01;9.60;99.90
12708;DHT22;6418;50.824;4.718;2023-10-31T04:29:28;9.60;99.90
12708;DHT22;6418;50.824;4.718;2023-10-31T04:31:55;9.60;99.90
12708;DHT22;6418;50.824;4.718;2023-10-31T04:34:22;9.50;99.90
12708;DHT22;6418;50.824;4.718;2023-10-31T04:36:49;9.50;99.90
12708;DHT22;6418;50.824;4.718;2023-10-31T04:39:17;9.50;99.90
12708;DHT22;6418;50.824;4.718;2023-10-31T04:41:44;9.50;99.90
12708;DHT22;6418;50.824;4.718;2023-10-31T04:44:11;9.50;99.90
12708;DHT22;6418;50.824;4.718;2023-10-31T04:46:38;9.50;99.90
12708;DHT22;6418;50.824;4.718;2023-10-31T04:49:05;9.40;99.90
12708;DHT22;6418;50.824;4.718;2023-10-31T04:51:33;9.40;99.90
12708;DHT22;6418;50.824;4.718;2023-10-31T04:54:00;9.40;99.90
12708;DHT22;6418;50.824;4.718;2023-10-31T04:56:29;9.40;99.90
12708;DHT22;6418;50.824;4.718;2023-10-31T04:58:56;9.40;99.90
12708;DHT22;6418;50.824;4.718;2023-10-31T05:01:23;9.40;99.90
12708;DHT22;6418;50.824;4.718;2023-10-31T05:03:50;9.40;99.90
12708;DHT22;6418;50.824;4.718;2023-10-31T05:06:19;9.30;99.90
12708;DHT22;6418;50.824;4.718;2023-10-31T05:08:46;9.30;99.90
12708;DHT22;6418;50.824;4.718;2023-10-31T05:11:13;9.30;99.90
12708;DHT22;6418;50.824;4.718;2023-10-31T05:13:42;9.30;99.90
12708;DHT22;6418;50.824;4.718;2023-10-31T05:16:08;9.30;99.90
12708;DHT22;6418;50.824;4.718;2023-10-31T05:18:36;9.30;99.90
12708;DHT22;6418;50.824;4.718;2023-10-31T05:21:04;9.30;99.90
12708;DHT22;6418;50.824;4.718;2023-10-31T05:23:31;9.40;99.90
12708;DHT22;6418;50.824;4.718;2023-10-31T05:25:58;9.40;99.90
12708;DHT22;6418;50.824;4.718;2023-10-31T05:28:25;9.40;99.90
12708;DHT22;6418;50.824;4.718;2023-10-31T05:30:53;9.40;99.90
12708;DHT22;6418;50.824;4.718;2023-10-31T05:33:20;9.40;99.90
12708;DHT22;6418;50.824;4.718;2023-10-31T05:35:48;9.40;99.90
12708;DHT22;6418;50.824;4.718;2023-10-31T05:38:16;9.40;99.90
12708;DHT22;6418;50.824;4.718;2023-10-31T05:40:43;9.40;99.90
12708;DHT22;6418;50.824;4.718;2023-10-31T05:43:10;9.40;99.90
12708;DHT22;6418;50.824;4.718;2023-10-31T05:45:37;9.40;99.90
12708;DHT22;6418;50.824;4.718;2023-10-31T05:48:05;9.50;99.90
12708;DHT22;6418;50.824;4.718;2023-10-31T05:50:32;9.50;99.90
12708;DHT22;6418;50.824;4.718;2023-10-31T05:52:59;9.50;99.90
12708;DHT22;6418;50.824;4.718;2023-10-31T05:55:26;9.50;99.90
12708;DHT22;6418;50.824;4.718;2023-10-31T05:57:53;9.60;99.90
12708;DHT22;6418;50.824;4.718;2023-10-31T06:00:20;9.60;99.90
12708;DHT22;6418;50.824;4.718;2023-10-31T06:02:47;9.60;99.90
12708;DHT22;6418;50.824;4.718;2023-10-31T06:05:15;9.60;99.90
12708;DHT22;6418;50.824;4.718;2023-10-31T06:07:42;9.70;99.90
12708;DHT22;6418;50.824;4.718;2023-10-31T06:10:09;9.70;99.90
12708;DHT22;6418;50.824;4.718;2023-10-31T06:12:36;9.70;99.90
12708;DHT22;6418;50.824;4.718;2023-10-31T06:15:04;9.70;99.90
12708;DHT22;6418;50.824;4.718;2023-10-31T06:17:30;9.70;99.90
12708;DHT22;6418;50.824;4.718;2023-10-31T06:20:00;9.70;99.90
12708;DHT22;6418;50.824;4.718;2023-10-31T06:22:28;9.80;99.90
12708;DHT22;6418;50.824;4.718;2023-10-31T06:24:55;9.80;99.90
12708;DHT22;6418;50.824;4.718;2023-10-31T06:27:23;9.80;99.90
12708;DHT22;6418;50.824;4.718;2023-10-31T06:29:50;9.80;99.90
12708;DHT22;6418;50.824;4.718;2023-10-31T06:32:18;9.80;99.90
12708;DHT22;6418;50.824;4.718;2023-10-31T06:34:45;9.80;99.90
12708;DHT22;6418;50.824;4.718;2023-10-31T06:37:12;9.80;99.90
12708;DHT22;6418;50.824;4.718;2023-10-31T06:39:40;9.80;99.90
12708;DHT22;6418;50.824;4.718;2023-10-31T06:42:07;9.80;99.90
12708;DHT22;6418;50.824;4.718;2023-10-31T06:44:33;9.80;99.90
12708;DHT22;6418;50.824;4.718;2023-10-31T06:47:00;9.70;99.90
12708;DHT22;6418;50.824;4.718;2023-10-31T06:49:27;9.80;99.90
12708;DHT22;6418;50.824;4.718;2023-10-31T06:51:54;9.70;99.90
12708;DHT22;6418;50.824;4.718;2023-10-31T06:54:21;9.80;99.90
12708;DHT22;6418;50.824;4.718;2023-10-31T06:56:49;9.80;99.90
12708;DHT22;6418;50.824;4.718;2023-10-31T06:59:18;9.80;99.90
12708;DHT22;6418;50.824;4.718;2023-10-31T07:01:44;9.80;99.90
12708;DHT22;6418;50.824;4.718;2023-10-31T07:04:12;9.80;99.90
12708;DHT22;6418;50.824;4.718;2023-10-31T07:06:39;9.80;99.90
12708;DHT22;6418;50.824;4.718;2023-10-31T07:09:06;9.80;99.90
12708;DHT22;6418;50.824;4.718;2023-10-31T07:11:33;9.80;99.90
12708;DHT22;6418;50.824;4.718;2023-10-31T07:14:02;9.80;99.90
12708;DHT22;6418;50.824;4.718;2023-10-31T07:16:32;9.80;99.90
12708;DHT22;6418;50.824;4.718;2023-10-31T07:18:59;9.80;99.90
12708;DHT22;6418;50.824;4.718;2023-10-31T07:21:26;9.80;99.90
12708;DHT22;6418;50.824;4.718;2023-10-31T07:23:53;9.80;99.90
12708;DHT22;6418;50.824;4.718;2023-10-31T07:26:21;9.90;99.90
12708;DHT22;6418;50.824;4.718;2023-10-31T07:28:48;9.90;99.90
12708;DHT22;6418;50.824;4.718;2023-10-31T07:31:16;9.90;99.90
12708;DHT22;6418;50.824;4.718;2023-10-31T07:33:44;9.90;99.90
12708;DHT22;6418;50.824;4.718;2023-10-31T07:36:11;9.90;99.90
12708;DHT22;6418;50.824;4.718;2023-10-31T07:38:38;9.90;99.90
12708;DHT22;6418;50.824;4.718;2023-10-31T07:41:05;10.00;99.90
12708;DHT22;6418;50.824;4.718;2023-10-31T07:43:32;10.00;99.90
12708;DHT22;6418;50.824;4.718;2023-10-31T07:45:59;10.00;99.90
12708;DHT22;6418;50.824;4.718;2023-10-31T07:48:27;10.10;99.90
12708;DHT22;6418;50.824;4.718;2023-10-31T07:50:54;10.10;99.90
12708;DHT22;6418;50.824;4.718;2023-10-31T07:53:21;10.10;99.90
12708;DHT22;6418;50.824;4.718;2023-10-31T07:55:48;10.10;99.90
12708;DHT22;6418;50.824;4.718;2023-10-31T07:58:15;10.20;99.90
12708;DHT22;6418;50.824;4.718;2023-10-31T08:00:42;10.20;99.90
12708;DHT22;6418;50.824;4.718;2023-10-31T08:03:09;10.20;99.90
12708;DHT22;6418;50.824;4.718;2023-10-31T08:05:37;10.20;99.90
12708;DHT22;6418;50.824;4.718;2023-10-31T08:08:05;10.20;99.90
12708;DHT22;6418;50.824;4.718;2023-10-31T08:10:31;10.30;99.90
12708;DHT22;6418;50.824;4.718;2023-10-31T08:12:59;10.30;99.90
12708;DHT22;6418;50.824;4.718;2023-10-31T08:15:26;10.30;99.90
12708;DHT22;6418;50.824;4.718;2023-10-31T08:17:53;10.30;99.90
12708;DHT22;6418;50.824;4.718;2023-10-31T08:20:20;10.30;99.90
12708;DHT22;6418;50.824;4.718;2023-10-31T08:22:48;10.30;99.90
12708;DHT22;6418;50.824;4.718;2023-10-31T08:25:15;10.30;99.90
12708;DHT22;6418;50.824;4.718;2023-10-31T08:27:42;10.40;99.90
12708;DHT22;6418;50.824;4.718;2023-10-31T08:30:10;10.40;99.90
12708;DHT22;6418;50.824;4.718;2023-10-31T08:32:37;10.40;99.90
12708;DHT22;6418;50.824;4.718;2023-10-31T08:35:05;10.50;99.90
12708;DHT22;6418;50.824;4.718;2023-10-31T08:37:31;10.50;99.90
12708;DHT22;6418;50.824;4.718;2023-10-31T08:40:00;10.60;99.90
12708;DHT22;6418;50.824;4.718;2023-10-31T08:42:29;10.60;99.90
12708;DHT22;6418;50.824;4.718;2023-10-31T08:44:55;10.60;99.90
12708;DHT22;6418;50.824;4.718;2023-10-31T08:47:22;10.70;99.90
12708;DHT22;6418;50.824;4.718;2023-10-31T08:49:49;10.70;99.90
12708;DHT22;6418;50.824;4.718;2023-10-31T08:52:16;10.70;99.90
12708;DHT22;6418;50.824;4.718;2023-10-31T08:54:44;10.70;99.90
12708;DHT22;6418;50.824;4.718;2023-10-31T08:57:12;10.80;99.90
12708;DHT22;6418;50.824;4.718;2023-10-31T08:59:39;10.80;99.90
12708;DHT22;6418;50.824;4.718;2023-10-31T09:02:06;10.90;99.90
12708;DHT22;6418;50.824;4.718;2023-10-31T09:04:33;10.90;99.90
12708;DHT22;6418;50.824;4.718;2023-10-31T09:07:00;11.00;99.90
12708;DHT22;6418;50.824;4.718;2023-10-31T09:09:27;11.00;99.90
12708;DHT22;6418;50.824;4.718;2023-10-31T09:11:54;11.00;99.90
12708;DHT22;6418;50.824;4.718;2023-10-31T09:14:22;11.00;99.90
12708;DHT22;6418;50.824;4.718;2023-10-31T09:16:50;11.10;99.90
12708;DHT22;6418;50.824;4.718;2023-10-31T09:19:16;11.10;99.90
12708;DHT22;6418;50.824;4.718;2023-10-31T09:21:46;11.10;99.90
12708;DHT22;6418;50.824;4.718;2023-10-31T09:24:13;11.20;99.90
12708;DHT22;6418;50.824;4.718;2023-10-31T09:26:42;11.10;99.90
12708;DHT22;6418;50.824;4.718;2023-10-31T09:29:10;11.10;99.90
12708;DHT22;6418;50.824;4.718;2023-10-31T09:31:38;11.10;99.90
12708;DHT22;6418;50.824;4.718;2023-10-31T09:34:05;11.20;99.90
12708;DHT22;6418;50.824;4.718;2023-10-31T09:36:33;11.20;99.90
12708;DHT22;6418;50.824;4.718;2023-10-31T09:39:00;11.20;99.90
12708;DHT22;6418;50.824;4.718;2023-10-31T09:41:28;11.30;99.90
12708;DHT22;6418;50.824;4.718;2023-10-31T09:43:55;11.40;99.90
12708;DHT22;6418;50.824;4.718;2023-10-31T09:46:22;11.40;99.90
12708;DHT22;6418;50.824;4.718;2023-10-31T09:48:51;11.40;99.90
12708;DHT22;6418;50.824;4.718;2023-10-31T09:51:18;11.40;99.90
12708;DHT22;6418;50.824;4.718;2023-10-31T09:53:45;11.50;99.90
12708;DHT22;6418;50.824;4.718;2023-10-31T09:56:14;11.50;99.90
12708;DHT22;6418;50.824;4.718;2023-10-31T09:58:42;11.50;99.90
12708;DHT22;6418;50.824;4.718;2023-10-31T10:01:09;11.50;99.90
12708;DHT22;6418;50.824;4.718;2023-10-31T10:03:36;11.50;99.90
12708;DHT22;6418;50.824;4.718;2023-10-31T10:06:06;11.60;99.90
12708;DHT22;6418;50.824;4.718;2023-10-31T10:08:37;11.60;99.90
12708;DHT22;6418;50.824;4.718;2023-10-31T10:11:05;11.70;99.90
12708;DHT22;6418;50.824;4.718;2023-10-31T10:13:32;11.70;99.90
12708;DHT22;6418;50.824;4.718;2023-10-31T10:16:00;11.70;99.90
12708;DHT22;6418;50.824;4.718;2023-10-31T10:18:27;11.80;99.90
12708;DHT22;6418;50.824;4.718;2023-10-31T10:20:55;11.80;99.90
12708;DHT22;6418;50.824;4.718;2023-10-31T10:23:24;11.90;99.90
12708;DHT22;6418;50.824;4.718;2023-10-31T10:25:53;11.80;99.90
12708;DHT22;6418;50.824;4.718;2023-10-31T10:28:20;11.90;99.90
12708;DHT22;6418;50.824;4.718;2023-10-31T10:30:47;11.90;99.90
12708;DHT22;6418;50.824;4.718;2023-10-31T10:33:14;11.90;99.90
12708;DHT22;6418;50.824;4.718;2023-10-31T10:35:42;11.90;99.90
12708;DHT22;6418;50.824;4.718;2023-10-31T10:38:11;12.00;99.90
12708;DHT22;6418;50.824;4.718;2023-10-31T10:40:42;12.00;99.90
12708;DHT22;6418;50.824;4.718;2023-10-31T10:43:13;12.00;99.90
12708;DHT22;6418;50.824;4.718;2023-10-31T10:45:43;12.10;99.90
12708;DHT22;6418;50.824;4.718;2023-10-31T10:48:12;12.10;99.90
12708;DHT22;6418;50.824;4.718;2023-10-31T10:50:43;12.10;99.90
12708;DHT22;6418;50.824;4.718;2023-10-31T10:53:20;12.10;99.90
12708;DHT22;6418;50.824;4.718;2023-10-31T10:55:55;12.20;99.90
12708;DHT22;6418;50.824;4.718;2023-10-31T10:58:27;12.20;99.90
12708;DHT22;6418;50.824;4.718;2023-10-31T11:00:57;12.20;99.90
12708;DHT22;6418;50.824;4.718;2023-10-31T11:03:26;12.30;99.90
12708;DHT22;6418;50.824;4.718;2023-10-31T11:05:54;12.30;99.90
12708;DHT22;6418;50.824;4.718;2023-10-31T11:08:23;12.30;99.90
12708;DHT22;6418;50.824;4.718;2023-10-31T11:10:53;12.40;99.90
12708;DHT22;6418;50.824;4.718;2023-10-31T11:13:22;12.40;99.90
12708;DHT22;6418;50.824;4.718;2023-10-31T11:15:52;12.40;99.90
12708;DHT22;6418;50.824;4.718;2023-10-31T11:18:20;12.50;99.90
12708;DHT22;6418;50.824;4.718;2023-10-31T11:20:49;12.50;99.90
12708;DHT22;6418;50.824;4.718;2023-10-31T11:23:16;12.40;99.90
12708;DHT22;6418;50.824;4.718;2023-10-31T11:25:44;12.40;99.90
12708;DHT22;6418;50.824;4.718;2023-10-31T11:28:17;12.40;99.90
12708;DHT22;6418;50.824;4.718;2023-10-31T11:30:47;12.40;99.90
12708;DHT22;6418;50.824;4.718;2023-10-31T11:33:15;12.40;99.90
12708;DHT22;6418;50.824;4.718;2023-10-31T11:35:43;12.40;99.90
12708;DHT22;6418;50.824;4.718;2023-10-31T11:38:11;12.40;99.90
12708;DHT22;6418;50.824;4.718;2023-10-31T11:40:57;12.40;99.90
12708;DHT22;6418;50.824;4.718;2023-10-31T11:43:36;12.40;99.90
12708;DHT22;6418;50.824;4.718;2023-10-31T11:46:03;12.40;99.90
12708;DHT22;6418;50.824;4.718;2023-10-31T11:48:45;12.40;99.90
12708;DHT22;6418;50.824;4.718;2023-10-31T11:51:13;12.40;99.90
12708;DHT22;6418;50.824;4.718;2023-10-31T11:53:40;12.40;99.90
12708;DHT22;6418;50.824;4.718;2023-10-31T11:56:09;12.40;99.90
12708;DHT22;6418;50.824;4.718;2023-10-31T11:58:38;12.40;99.90
12708;DHT22;6418;50.824;4.718;2023-10-31T12:01:07;12.40;99.90
12708;DHT22;6418;50.824;4.718;2023-10-31T12:03:38;12.40;99.90
12708;DHT22;6418;50.824;4.718;2023-10-31T12:06:06;12.40;99.90
12708;DHT22;6418;50.824;4.718;2023-10-31T12:08:34;12.40;99.90
12708;DHT22;6418;50.824;4.718;2023-10-31T12:11:06;12.30;99.90
12708;DHT22;6418;50.824;4.718;2023-10-31T12:13:34;12.30;99.90
12708;DHT22;6418;50.824;4.718;2023-10-31T12:16:03;12.30;99.90
12708;DHT22;6418;50.824;4.718;2023-10-31T12:18:31;12.30;99.90
12708;DHT22;6418;50.824;4.718;2023-10-31T12:20:58;12.20;99.90
12708;DHT22;6418;50.824;4.718;2023-10-31T12:23:25;12.20;99.90
12708;DHT22;6418;50.824;4.718;2023-10-31T12:25:52;12.20;99.90
12708;DHT22;6418;50.824;4.718;2023-10-31T12:28:20;12.20;99.90
12708;DHT22;6418;50.824;4.718;2023-10-31T12:30:48;12.20;99.90
12708;DHT22;6418;50.824;4.718;2023-10-31T12:33:17;12.20;99.90
12708;DHT22;6418;50.824;4.718;2023-10-31T12:35:44;12.20;99.90
12708;DHT22;6418;50.824;4.718;2023-10-31T12:38:12;12.20;99.90
12708;DHT22;6418;50.824;4.718;2023-10-31T12:40:40;12.20;99.90
12708;DHT22;6418;50.824;4.718;2023-10-31T12:43:07;12.20;99.90
12708;DHT22;6418;50.824;4.718;2023-10-31T12:45:35;12.20;99.90
12708;DHT22;6418;50.824;4.718;2023-10-31T12:48:03;12.10;99.90
12708;DHT22;6418;50.824;4.718;2023-10-31T12:50:32;12.10;99.90
12708;DHT22;6418;50.824;4.718;2023-10-31T12:53:00;12.00;99.90
12708;DHT22;6418;50.824;4.718;2023-10-31T12:55:29;12.00;99.90
12708;DHT22;6418;50.824;4.718;2023-10-31T12:57:57;12.00;99.90
12708;DHT22;6418;50.824;4.718;2023-10-31T13:00:31;11.90;99.90
12708;DHT22;6418;50.824;4.718;2023-10-31T13:03:02;11.90;99.90
12708;DHT22;6418;50.824;4.718;2023-10-31T13:05:30;11.90;99.90
12708;DHT22;6418;50.824;4.718;2023-10-31T13:07:59;11.90;99.90
12708;DHT22;6418;50.824;4.718;2023-10-31T13:10:29;11.90;99.90
12708;DHT22;6418;50.824;4.718;2023-10-31T13:12:56;11.90;99.90
12708;DHT22;6418;50.824;4.718;2023-10-31T13:15:23;11.90;99.90
12708;DHT22;6418;50.824;4.718;2023-10-31T13:17:51;11.90;99.90
12708;DHT22;6418;50.824;4.718;2023-10-31T13:20:20;11.90;99.90
12708;DHT22;6418;50.824;4.718;2023-10-31T13:22:47;12.00;99.90
12708;DHT22;6418;50.824;4.718;2023-10-31T13:25:16;12.00;99.90
12708;DHT22;6418;50.824;4.718;2023-10-31T13:27:44;12.00;99.90
12708;DHT22;6418;50.824;4.718;2023-10-31T13:30:16;12.00;99.90
12708;DHT22;6418;50.824;4.718;2023-10-31T13:32:44;12.00;99.90
12708;DHT22;6418;50.824;4.718;2023-10-31T13:35:11;12.00;99.90
12708;DHT22;6418;50.824;4.718;2023-10-31T13:37:39;12.00;99.90
12708;DHT22;6418;50.824;4.718;2023-10-31T13:40:07;11.90;99.90
12708;DHT22;6418;50.824;4.718;2023-10-31T13:42:36;11.90;99.90
12708;DHT22;6418;50.824;4.718;2023-10-31T13:45:03;11.90;99.90
12708;DHT22;6418;50.824;4.718;2023-10-31T13:47:30;11.90;99.90
12708;DHT22;6418;50.824;4.718;2023-10-31T13:49:58;11.90;99.90
12708;DHT22;6418;50.824;4.718;2023-10-31T13:52:25;11.90;99.90
12708;DHT22;6418;50.824;4.718;2023-10-31T13:54:52;11.80;99.90
12708;DHT22;6418;50.824;4.718;2023-10-31T13:57:19;11.70;99.90
12708;DHT22;6418;50.824;4.718;2023-10-31T13:59:47;11.70;99.90
12708;DHT22;6418;50.824;4.718;2023-10-31T14:02:14;11.70;99.90
12708;DHT22;6418;50.824;4.718;2023-10-31T14:04:42;11.70;99.90
12708;DHT22;6418;50.824;4.718;2023-10-31T14:07:11;11.60;99.90
12708;DHT22;6418;50.824;4.718;2023-10-31T14:09:39;11.60;99.90
12708;DHT22;6418;50.824;4.718;2023-10-31T14:12:06;11.70;99.90
12708;DHT22;6418;50.824;4.718;2023-10-31T14:14:33;11.70;99.90
12708;DHT22;6418;50.824;4.718;2023-10-31T14:17:01;11.70;99.90
12708;DHT22;6418;50.824;4.718;2023-10-31T14:19:30;11.70;99.90
12708;DHT22;6418;50.824;4.718;2023-10-31T14:21:57;11.70;99.90
12708;DHT22;6418;50.824;4.718;2023-10-31T14:24:24;11.70;99.90
12708;DHT22;6418;50.824;4.718;2023-10-31T14:26:51;11.80;99.90
12708;DHT22;6418;50.824;4.718;2023-10-31T14:29:17;11.80;99.90
12708;DHT22;6418;50.824;4.718;2023-10-31T14:31:44;11.90;99.90
12708;DHT22;6418;50.824;4.718;2023-10-31T14:34:13;11.90;99.90
12708;DHT22;6418;50.824;4.718;2023-10-31T14:36:39;11.90;99.90
12708;DHT22;6418;50.824;4.718;2023-10-31T14:39:07;11.90;99.90
12708;DHT22;6418;50.824;4.718;2023-10-31T14:41:35;11.90;99.90
12708;DHT22;6418;50.824;4.718;2023-10-31T14:44:02;11.90;99.90
12708;DHT22;6418;50.824;4.718;2023-10-31T14:46:29;11.90;99.90
12708;DHT22;6418;50.824;4.718;2023-10-31T14:48:57;11.90;99.90
12708;DHT22;6418;50.824;4.718;2023-10-31T14:51:26;11.90;99.90
12708;DHT22;6418;50.824;4.718;2023-10-31T14:53:53;11.90;99.90
12708;DHT22;6418;50.824;4.718;2023-10-31T14:56:19;11.90;99.90
12708;DHT22;6418;50.824;4.718;2023-10-31T14:58:47;11.90;99.90
12708;DHT22;6418;50.824;4.718;2023-10-31T15:01:14;11.90;99.90
12708;DHT22;6418;50.824;4.718;2023-10-31T15:03:41;11.90;99.90
12708;DHT22;6418;50.824;4.718;2023-10-31T15:06:08;11.90;99.90
12708;DHT22;6418;50.824;4.718;2023-10-31T15:08:37;11.90;99.90
12708;DHT22;6418;50.824;4.718;2023-10-31T15:11:04;11.90;99.90
12708;DHT22;6418;50.824;4.718;2023-10-31T15:13:31;11.80;99.90
12708;DHT22;6418;50.824;4.718;2023-10-31T15:15:57;11.80;99.90
12708;DHT22;6418;50.824;4.718;2023-10-31T15:18:24;11.80;99.90
12708;DHT22;6418;50.824;4.718;2023-10-31T15:20:51;11.80;99.90
12708;DHT22;6418;50.824;4.718;2023-10-31T15:23:20;11.70;99.90
12708;DHT22;6418;50.824;4.718;2023-10-31T15:25:48;11.70;99.90
12708;DHT22;6418;50.824;4.718;2023-10-31T15:28:15;11.70;99.90
12708;DHT22;6418;50.824;4.718;2023-10-31T15:30:42;11.70;99.90
12708;DHT22;6418;50.824;4.718;2023-10-31T15:33:09;11.70;99.90
12708;DHT22;6418;50.824;4.718;2023-10-31T15:35:36;11.60;99.90
12708;DHT22;6418;50.824;4.718;2023-10-31T15:38:03;11.60;99.90
12708;DHT22;6418;50.824;4.718;2023-10-31T15:40:30;11.60;99.90
12708;DHT22;6418;50.824;4.718;2023-10-31T15:42:58;11.60;99.90
12708;DHT22;6418;50.824;4.718;2023-10-31T15:45:25;11.60;99.90
12708;DHT22;6418;50.824;4.718;2023-10-31T15:47:52;11.60;99.90
12708;DHT22;6418;50.824;4.718;2023-10-31T15:50:19;11.50;99.90
12708;DHT22;6418;50.824;4.718;2023-10-31T15:52:46;11.50;99.90